Time,TemperatureF,DewpointF,PressureIn,WindDirection,WindDirectionDegrees,WindSpeedMPH,WindSpeedGustMPH,Humidity,HourlyPrecipIn,Conditions,Clouds,dailyrainin,SolarRadiationWatts/m^2,SoftwareType,DateUTC
2013-04-22 00:00:00,55.7,11.5,29.93,SSE,168,0.0,5.0,17,0.00,,,0.00,0,Wunderground v.1.15,2013-04-22 07:00:00,
2013-04-22 00:10:00,55.6,10.0,29.93,SSE,168,0.0,5.0,16,0.00,,,0.00,0,Wunderground v.1.15,2013-04-22 07:10:00,
2013-04-22 00:20:00,55.1,11.0,29.93,SSE,168,0.0,5.0,17,0.00,,,0.00,0,Wunderground v.1.15,2013-04-22 07:20:00,
2013-04-22 00:30:00,54.6,10.6,29.92,ESE,121,0.0,5.0,17,0.00,,,0.00,0,Wunderground v.1.15,2013-04-22 07:30:00,
2013-04-22 00:40:00,53.2,9.4,29.93,SW,234,0.0,5.0,17,0.00,,,0.00,0,Wunderground v.1.15,2013-04-22 07:40:00,
2013-04-22 00:50:00,51.6,9.4,29.93,SW,234,0.0,5.0,18,0.00,,,0.00,0,Wunderground v.1.15,2013-04-22 07:50:00,
2013-04-22 01:00:00,50.0,10.4,29.92,SW,234,0.0,5.0,20,0.00,,,0.00,0,Wunderground v.1.15,2013-04-22 08:00:00,
2013-04-22 01:10:00,49.2,9.8,29.92,SW,234,0.0,5.0,20,0.00,,,0.00,0,Wunderground v.1.15,2013-04-22 08:10:00,
2013-04-22 01:20:00,48.2,10.0,29.92,SW,234,0.0,5.0,21,0.00,,,0.00,0,Wunderground v.1.15,2013-04-22 08:20:00,
2013-04-22 01:30:00,48.1,9.9,29.92,SW,234,0.0,5.0,21,0.00,,,0.00,0,Wunderground v.1.15,2013-04-22 08:30:00,
2013-04-22 01:40:00,47.8,9.7,29.91,SW,234,0.0,5.0,21,0.00,,,0.00,0,Wunderground v.1.15,2013-04-22 08:40:00,
2013-04-22 01:50:00,47.6,10.6,29.91,SW,234,0.0,5.0,22,0.00,,,0.00,0,Wunderground v.1.15,2013-04-22 08:50:00,
2013-04-22 02:00:00,47.2,10.2,29.91,SW,234,0.0,5.0,22,0.00,,,0.00,0,Wunderground v.1.15,2013-04-22 09:00:00,
2013-04-22 02:10:00,46.6,9.7,29.91,West,274,0.0,5.0,22,0.00,,,0.00,0,Wunderground v.1.15,2013-04-22 09:10:00,
2013-04-22 02:20:00,46.5,10.6,29.91,West,274,0.0,5.0,23,0.00,,,0.00,0,Wunderground v.1.15,2013-04-22 09:20:00,
2013-04-22 02:30:00,47.2,10.2,29.91,West,274,0.0,5.0,22,0.00,,,0.00,0,Wunderground v.1.15,2013-04-22 09:30:00,
2013-04-22 02:40:00,46.9,10.0,29.92,West,274,0.0,5.0,22,0.00,,,0.00,0,Wunderground v.1.15,2013-04-22 09:40:00,
2013-04-22 02:50:00,46.7,10.8,29.92,West,274,0.0,5.0,23,0.00,,,0.00,0,Wunderground v.1.15,2013-04-22 09:50:00,
2013-04-22 03:00:00,46.5,10.6,29.91,West,274,0.0,5.0,23,0.00,,,0.00,0,Wunderground v.1.15,2013-04-22 10:00:00,
2013-04-22 03:10:00,45.8,11.0,29.92,West,274,0.0,5.0,24,0.00,,,0.00,0,Wunderground v.1.15,2013-04-22 10:10:00,
2013-04-22 03:20:00,46.0,10.2,29.92,West,274,0.0,5.0,23,0.00,,,0.00,0,Wunderground v.1.15,2013-04-22 10:20:00,
2013-04-22 03:30:00,45.8,10.0,29.92,West,274,0.0,5.0,23,0.00,,,0.00,0,Wunderground v.1.15,2013-04-22 10:30:00,
2013-04-22 03:40:00,45.7,10.9,29.92,West,274,0.0,5.0,24,0.00,,,0.00,0,Wunderground v.1.15,2013-04-22 10:40:00,
2013-04-22 03:50:00,46.1,10.3,29.92,West,274,0.0,5.0,23,0.00,,,0.00,0,Wunderground v.1.15,2013-04-22 10:50:00,
2013-04-22 04:00:00,46.4,10.5,29.92,West,274,0.0,5.0,23,0.00,,,0.00,0,Wunderground v.1.15,2013-04-22 11:00:00,
2013-04-22 04:10:00,45.2,10.5,29.92,West,274,0.0,5.0,24,0.00,,,0.00,0,Wunderground v.1.15,2013-04-22 11:10:00,
2013-04-22 04:20:00,44.9,12.0,29.92,West,275,0.0,5.0,26,0.00,,,0.00,0,Wunderground v.1.15,2013-04-22 11:20:00,
2013-04-22 04:30:00,45.2,11.4,29.92,West,275,0.0,5.0,25,0.00,,,0.00,0,Wunderground v.1.15,2013-04-22 11:30:00,
2013-04-22 04:40:00,45.1,11.3,29.92,West,275,0.0,5.0,25,0.00,,,0.00,0,Wunderground v.1.15,2013-04-22 11:40:00,
2013-04-22 04:50:00,45.8,12.8,29.92,West,275,0.0,5.0,26,0.00,,,0.00,0,Wunderground v.1.15,2013-04-22 11:50:00,
2013-04-22 05:00:00,46.3,12.3,29.92,West,275,0.0,5.0,25,0.00,,,0.00,0,Wunderground v.1.15,2013-04-22 12:00:00,
2013-04-22 05:10:00,45.9,12.0,29.92,WSW,237,0.0,5.0,25,0.00,,,0.00,0,Wunderground v.1.15,2013-04-22 12:10:00,
2013-04-22 05:20:00,45.0,12.1,29.92,WSW,237,0.0,5.0,26,0.00,,,0.00,0,Wunderground v.1.15,2013-04-22 12:20:00,
2013-04-22 05:30:00,44.3,12.4,29.92,South,186,0.0,5.0,27,0.00,,,0.00,0,Wunderground v.1.15,2013-04-22 12:30:00,
2013-04-22 05:40:00,44.0,12.1,29.92,South,180,0.0,5.0,27,0.00,,,0.00,0,Wunderground v.1.15,2013-04-22 12:40:00,
2013-04-22 05:50:00,44.0,12.9,29.92,SSW,201,0.0,5.0,28,0.00,,,0.00,9,Wunderground v.1.15,2013-04-22 12:50:00,
2013-04-22 06:00:00,44.2,13.1,29.92,SSW,205,0.0,5.0,28,0.00,,,0.00,16,Wunderground v.1.15,2013-04-22 13:00:00,
2013-04-22 06:10:00,44.6,13.5,29.93,SW,217,0.0,0.0,28,0.00,,,0.00,35,Wunderground v.1.15,2013-04-22 13:10:00,
2013-04-22 06:20:00,45.6,13.5,29.93,SSW,209,0.0,0.0,27,0.00,,,0.00,65,Wunderground v.1.15,2013-04-22 13:20:00,
2013-04-22 06:30:00,47.2,14.0,29.94,SW,220,0.0,0.0,26,0.00,,,0.00,102,Wunderground v.1.15,2013-04-22 13:30:00,
2013-04-22 06:40:00,49.2,14.8,29.94,SW,214,0.0,0.0,25,0.00,,,0.00,141,Wunderground v.1.15,2013-04-22 13:40:00,
2013-04-22 06:50:00,51.5,14.9,29.94,South,182,0.0,0.0,23,0.00,,,0.00,183,Wunderground v.1.15,2013-04-22 13:50:00,
2013-04-22 07:00:00,53.6,16.6,29.94,SSE,153,0.0,0.0,23,0.00,,,0.00,223,Wunderground v.1.15,2013-04-22 14:00:00,
2013-04-22 07:10:00,55.5,17.2,29.94,South,183,0.0,1.0,22,0.00,,,0.00,262,Wunderground v.1.15,2013-04-22 14:10:00,
2013-04-22 07:20:00,57.1,17.5,29.94,South,179,2.0,2.0,21,0.00,,,0.00,297,Wunderground v.1.15,2013-04-22 14:20:00,
2013-04-22 07:30:00,59.0,17.9,29.94,South,174,1.0,1.0,20,0.00,,,0.00,336,Wunderground v.1.15,2013-04-22 14:30:00,
2013-04-22 07:40:00,61.7,19.0,29.93,South,183,3.0,3.0,19,0.00,,,0.01,378,Wunderground v.1.15,2013-04-22 14:40:00,
2013-04-22 09:20:00,75.0,16.9,29.93,SE,125,2.0,2.0,11,0.00,,,0.01,722,Wunderground v.1.15,2013-04-22 16:20:00,
2013-04-22 09:30:00,75.1,17.0,29.92,ENE,66,1.0,1.0,11,0.00,,,0.01,751,Wunderground v.1.15,2013-04-22 16:30:00,
2013-04-22 09:40:00,76.3,15.7,29.92,SE,142,1.0,1.0,10,0.00,,,0.01,779,Wunderground v.1.15,2013-04-22 16:40:00,
2013-04-22 09:50:00,77.1,16.3,29.92,South,181,1.0,3.0,10,0.00,,,0.01,805,Wunderground v.1.15,2013-04-22 16:50:00,
2013-04-22 10:00:00,78.1,17.0,29.92,SSE,154,1.0,1.0,10,0.00,,,0.01,828,Wunderground v.1.15,2013-04-22 17:00:00,
2013-04-22 10:10:00,78.4,14.8,29.91,South,173,5.0,5.0,9,0.00,,,0.01,854,Wunderground v.1.15,2013-04-22 17:10:00,
2013-04-22 10:20:00,79.3,12.8,29.91,South,187,6.0,9.0,8,0.00,,,0.01,875,Wunderground v.1.15,2013-04-22 17:20:00,
2013-04-22 10:30:00,80.3,13.6,29.90,SSE,164,7.0,9.0,8,0.00,,,0.01,896,Wunderground v.1.15,2013-04-22 17:30:00,
2013-04-22 10:40:00,80.3,13.6,29.90,SSE,159,8.0,11.0,8,0.00,,,0.01,914,Wunderground v.1.15,2013-04-22 17:40:00,
2013-04-22 10:50:00,80.2,13.5,29.89,SSW,213,10.0,10.0,8,0.00,,,0.01,932,Wunderground v.1.15,2013-04-22 17:50:00,
2013-04-22 11:00:00,81.1,14.2,29.89,SSE,161,8.0,8.0,8,0.00,,,0.01,944,Wunderground v.1.15,2013-04-22 18:00:00,
2013-04-22 11:10:00,81.4,14.4,29.88,South,191,11.0,11.0,8,0.00,,,0.01,960,Wunderground v.1.15,2013-04-22 18:10:00,
2013-04-22 11:20:00,81.7,14.6,29.88,South,191,8.0,8.0,8,0.00,,,0.01,970,Wunderground v.1.15,2013-04-22 18:20:00,
2013-04-22 11:30:00,82.7,12.3,29.87,SW,233,8.0,8.0,7,0.00,,,0.01,979,Wunderground v.1.15,2013-04-22 18:30:00,
2013-04-22 11:40:00,82.8,12.4,29.86,South,177,9.0,9.0,7,0.00,,,0.01,988,Wunderground v.1.15,2013-04-22 18:40:00,
2013-04-22 11:50:00,83.1,12.6,29.86,SSW,196,7.0,10.0,7,0.00,,,0.01,991,Wunderground v.1.15,2013-04-22 18:50:00,
2013-04-22 12:00:00,83.6,13.0,29.85,SSW,199,11.0,11.0,7,0.00,,,0.01,997,Wunderground v.1.15,2013-04-22 19:00:00,
2013-04-22 12:10:00,84.0,9.8,29.84,SW,232,8.0,8.0,6,0.00,,,0.01,1000,Wunderground v.1.15,2013-04-22 19:10:00,
2013-04-22 12:20:00,84.5,10.2,29.83,SSW,195,8.0,20.0,6,0.00,,,0.01,1000,Wunderground v.1.15,2013-04-22 19:20:00,
2013-04-22 12:30:00,85.0,10.5,29.83,SSW,192,10.0,10.0,6,0.00,,,0.01,1002,Wunderground v.1.15,2013-04-22 19:30:00,
2013-04-22 12:40:00,85.3,14.2,29.83,SW,218,8.0,8.0,7,0.00,,,0.01,998,Wunderground v.1.15,2013-04-22 19:40:00,
2013-04-22 12:50:00,85.7,11.0,29.82,SW,214,10.0,20.0,6,0.00,,,0.01,991,Wunderground v.1.15,2013-04-22 19:50:00,
2013-04-22 13:00:00,85.6,10.9,29.82,SW,227,11.0,20.0,6,0.00,,,0.01,986,Wunderground v.1.15,2013-04-22 20:00:00,
2013-04-22 13:10:00,85.9,11.2,29.81,SSW,207,11.0,11.0,6,0.00,,,0.01,979,Wunderground v.1.15,2013-04-22 20:10:00,
2013-04-22 13:20:00,86.2,11.4,29.81,SW,236,11.0,20.0,6,0.00,,,0.01,969,Wunderground v.1.15,2013-04-22 20:20:00,
2013-04-22 13:30:00,86.3,11.4,29.80,SW,225,11.0,20.0,6,0.00,,,0.01,954,Wunderground v.1.15,2013-04-22 20:30:00,
2013-04-22 13:40:00,86.1,7.2,29.80,SW,229,10.0,20.0,5,0.00,,,0.01,947,Wunderground v.1.15,2013-04-22 20:40:00,
2013-04-22 13:50:00,87.0,11.9,29.80,SSW,206,9.0,20.0,6,0.00,,,0.01,926,Wunderground v.1.15,2013-04-22 20:50:00,
2013-04-22 14:00:00,86.9,7.8,29.79,SW,215,11.0,11.0,5,0.00,,,0.01,912,Wunderground v.1.15,2013-04-22 21:00:00,
2013-04-22 14:10:00,87.1,7.9,29.79,West,263,11.0,14.0,5,0.00,,,0.01,896,Wunderground v.1.15,2013-04-22 21:10:00,
2013-04-22 14:20:00,87.2,8.0,29.79,WSW,241,11.0,11.0,5,0.00,,,0.01,872,Wunderground v.1.15,2013-04-22 21:20:00,
2013-04-22 14:30:00,87.1,12.0,29.78,WSW,243,9.0,11.0,6,0.00,,,0.01,849,Wunderground v.1.15,2013-04-22 21:30:00,
2013-04-22 14:40:00,87.2,8.0,29.78,South,187,10.0,10.0,5,0.00,,,0.01,823,Wunderground v.1.15,2013-04-22 21:40:00,
2013-04-22 14:50:00,87.7,12.5,29.77,SW,232,6.0,13.0,6,0.00,,,0.01,800,Wunderground v.1.15,2013-04-22 21:50:00,
2013-04-22 15:00:00,87.8,8.4,29.76,SW,229,8.0,8.0,5,0.00,,,0.01,780,Wunderground v.1.15,2013-04-22 22:00:00,
2013-04-22 15:10:00,87.2,3.1,29.76,WSW,241,7.0,7.0,4,0.00,,,0.01,752,Wunderground v.1.15,2013-04-22 22:10:00,
2013-04-22 15:20:00,87.5,3.3,29.75,WNW,283,8.0,9.0,4,0.00,,,0.01,722,Wunderground v.1.15,2013-04-22 22:20:00,
2013-04-22 15:30:00,87.0,3.0,29.75,West,261,9.0,16.0,4,0.00,,,0.01,691,Wunderground v.1.15,2013-04-22 22:30:00,
2013-04-22 15:40:00,86.7,7.7,29.75,WSW,240,8.0,9.0,5,0.00,,,0.01,666,Wunderground v.1.15,2013-04-22 22:40:00,
2013-04-22 15:50:00,86.7,7.7,29.75,West,269,8.0,12.0,5,0.00,,,0.01,626,Wunderground v.1.15,2013-04-22 22:50:00,
2013-04-22 16:00:00,86.5,7.5,29.75,SW,232,8.0,8.0,5,0.00,,,0.01,592,Wunderground v.1.15,2013-04-22 23:00:00,
2013-04-22 16:10:00,85.9,2.2,29.75,SW,233,11.0,19.0,4,0.00,,,0.01,559,Wunderground v.1.15,2013-04-22 23:10:00,
2013-04-22 16:20:00,85.8,2.2,29.75,WSW,240,9.0,19.0,4,0.00,,,0.01,527,Wunderground v.1.15,2013-04-22 23:20:00,
2013-04-22 16:30:00,85.6,6.9,29.75,SW,224,8.0,19.0,5,0.00,,,0.01,485,Wunderground v.1.15,2013-04-22 23:30:00,
2013-04-22 16:40:00,85.2,6.6,29.74,WSW,246,10.0,10.0,5,0.00,,,0.01,461,Wunderground v.1.15,2013-04-22 23:40:00,
2013-04-22 16:50:00,85.1,6.5,29.74,WSW,258,9.0,19.0,5,0.00,,,0.01,418,Wunderground v.1.15,2013-04-22 23:50:00,
2013-04-22 17:00:00,84.8,6.3,29.74,WSW,240,6.0,19.0,5,0.00,,,0.01,381,Wunderground v.1.15,2013-04-23 00:00:00,
2013-04-22 17:10:00,84.7,6.2,29.75,WSW,254,7.0,8.0,5,0.00,,,0.01,322,Wunderground v.1.15,2013-04-23 00:10:00,
2013-04-22 17:20:00,84.0,5.7,29.75,WSW,249,8.0,8.0,5,0.00,,,0.01,297,Wunderground v.1.15,2013-04-23 00:20:00,
2013-04-22 17:30:00,83.3,5.3,29.75,WSW,246,9.0,9.0,5,0.00,,,0.01,269,Wunderground v.1.15,2013-04-23 00:30:00,
2013-04-22 17:40:00,82.9,5.0,29.75,WSW,247,8.0,8.0,5,0.00,,,0.01,221,Wunderground v.1.15,2013-04-23 00:40:00,
2013-04-22 17:50:00,82.5,4.7,29.75,WSW,256,8.0,8.0,5,0.00,,,0.01,174,Wunderground v.1.15,2013-04-23 00:50:00,
2013-04-22 18:00:00,82.0,4.3,29.75,SW,230,6.0,6.0,5,0.00,,,0.01,132,Wunderground v.1.15,2013-04-23 01:00:00,
2013-04-22 18:10:00,81.4,3.9,29.75,SW,232,6.0,16.0,5,0.00,,,0.01,90,Wunderground v.1.15,2013-04-23 01:10:00,
2013-04-22 18:20:00,80.4,7.2,29.75,West,271,6.0,16.0,6,0.00,,,0.01,56,Wunderground v.1.15,2013-04-23 01:20:00,
2013-04-22 18:30:00,79.7,6.7,29.75,WSW,238,4.0,4.0,6,0.00,,,0.01,23,Wunderground v.1.15,2013-04-23 01:30:00,
2013-04-22 18:40:00,78.4,5.8,29.75,SW,227,1.0,1.0,6,0.00,,,0.01,16,Wunderground v.1.15,2013-04-23 01:40:00,
2013-04-22 18:50:00,76.9,4.7,29.75,WSW,242,0.0,16.0,6,0.00,,,0.01,7,Wunderground v.1.15,2013-04-23 01:50:00,
2013-04-22 19:00:00,75.5,7.0,29.75,WSW,239,0.0,16.0,7,0.00,,,0.01,0,Wunderground v.1.15,2013-04-23 02:00:00,
2013-04-22 19:10:00,74.5,9.3,29.75,WSW,237,1.0,1.0,8,0.00,,,0.01,0,Wunderground v.1.15,2013-04-23 02:10:00,
2013-04-22 19:20:00,74.3,9.1,29.76,SSW,205,2.0,2.0,8,0.00,,,0.01,0,Wunderground v.1.15,2013-04-23 02:20:00,
2013-04-22 19:30:00,73.9,8.8,29.76,SW,236,0.0,0.0,8,0.00,,,0.01,0,Wunderground v.1.15,2013-04-23 02:30:00,
2013-04-22 19:40:00,72.8,8.0,29.76,WSW,238,1.0,1.0,8,0.00,,,0.01,0,Wunderground v.1.15,2013-04-23 02:40:00,
2013-04-22 19:50:00,73.3,8.4,29.76,WSW,245,2.0,2.0,8,0.00,,,0.01,0,Wunderground v.1.15,2013-04-23 02:50:00,
2013-04-22 20:00:00,72.8,8.0,29.76,SSW,207,1.0,1.0,8,0.00,,,0.01,0,Wunderground v.1.15,2013-04-23 03:00:00,
2013-04-22 20:10:00,72.6,7.8,29.76,SSW,200,1.0,4.0,8,0.00,,,0.01,0,Wunderground v.1.15,2013-04-23 03:10:00,
2013-04-22 20:20:00,72.6,7.8,29.76,SSW,196,4.0,4.0,8,0.00,,,0.01,0,Wunderground v.1.15,2013-04-23 03:20:00,
2013-04-22 20:30:00,72.7,7.9,29.76,SSE,156,4.0,4.0,8,0.00,,,0.01,0,Wunderground v.1.15,2013-04-23 03:30:00,
2013-04-22 20:40:00,72.8,8.0,29.77,South,173,4.0,4.0,8,0.00,,,0.01,0,Wunderground v.1.15,2013-04-23 03:40:00,
2013-04-22 20:50:00,71.9,9.9,29.78,WSW,249,1.0,1.0,9,0.00,,,0.01,0,Wunderground v.1.15,2013-04-23 03:50:00,
2013-04-22 21:00:00,70.7,9.0,29.78,SSW,207,0.0,4.0,9,0.00,,,0.01,0,Wunderground v.1.15,2013-04-23 04:00:00,
2013-04-22 21:10:00,69.3,10.3,29.78,West,277,0.0,0.0,10,0.00,,,0.01,0,Wunderground v.1.15,2013-04-23 04:10:00,
2013-04-22 21:20:00,68.4,9.6,29.78,West,268,0.0,1.0,10,0.00,,,0.01,0,Wunderground v.1.15,2013-04-23 04:20:00,
2013-04-22 21:30:00,67.9,9.2,29.78,West,270,0.0,0.0,10,0.00,,,0.01,0,Wunderground v.1.15,2013-04-23 04:30:00,
2013-04-22 21:40:00,67.8,9.2,29.78,West,281,0.0,0.0,10,0.00,,,0.01,0,Wunderground v.1.15,2013-04-23 04:40:00,
2013-04-22 21:50:00,67.0,10.7,29.78,West,281,0.0,0.0,11,0.00,,,0.01,0,Wunderground v.1.15,2013-04-23 04:50:00,
2013-04-22 22:00:00,65.9,11.8,29.78,SW,227,0.0,0.0,12,0.00,,,0.01,0,Wunderground v.1.15,2013-04-23 05:00:00,
2013-04-22 22:10:00,65.7,11.6,29.78,WNW,292,1.0,13.0,12,0.00,,,0.01,0,Wunderground v.1.15,2013-04-23 05:10:00,
2013-04-22 22:20:00,66.9,12.6,29.78,SSW,192,3.0,13.0,12,0.00,,,0.01,0,Wunderground v.1.15,2013-04-23 05:20:00,
2013-04-22 22:30:00,66.3,12.1,29.78,WSW,238,3.0,3.0,12,0.00,,,0.01,0,Wunderground v.1.15,2013-04-23 05:30:00,
2013-04-22 22:40:00,66.5,14.1,29.77,SSW,211,3.0,13.0,13,0.00,,,0.01,0,Wunderground v.1.15,2013-04-23 05:40:00,
2013-04-22 22:50:00,67.9,13.3,29.77,SW,229,5.0,13.0,12,0.00,,,0.01,0,Wunderground v.1.15,2013-04-23 05:50:00,
2013-04-22 23:00:00,69.4,14.5,29.77,SW,229,6.0,6.0,12,0.00,,,0.01,0,Wunderground v.1.15,2013-04-23 06:00:00,
2013-04-22 23:10:00,67.7,13.2,29.77,SW,219,6.0,6.0,12,0.00,,,0.01,0,Wunderground v.1.15,2013-04-23 06:10:00,
2013-04-22 23:20:00,66.7,14.2,29.77,SSW,211,8.0,13.0,13,0.00,,,0.01,0,Wunderground v.1.15,2013-04-23 06:20:00,
2013-04-22 23:30:00,67.1,14.5,29.77,SSW,200,10.0,14.0,13,0.00,,,0.01,0,Wunderground v.1.15,2013-04-23 06:30:00,
2013-04-22 23:40:00,67.1,16.3,29.77,SW,216,12.0,17.0,14,0.00,,,0.01,0,Wunderground v.1.15,2013-04-23 06:40:00,
2013-04-22 23:50:00,66.9,16.1,29.77,SW,220,14.0,17.0,14,0.00,,,0.01,0,Wunderground v.1.15,2013-04-23 06:50:00,